createdAt,value
2023-04-10T00:00:03.207Z,51.80
2023-04-10T00:01:03.414Z,52.20
2023-04-10T00:02:03.657Z,49.60
2023-04-10T00:03:04.309Z,51.60
2023-04-10T00:04:04.332Z,52.70
2023-04-10T00:05:04.489Z,49.40
2023-04-10T00:06:04.699Z,55.80
2023-04-10T00:07:04.860Z,52.60
2023-04-10T00:08:05.180Z,49.70
2023-04-10T00:09:05.388Z,52.80
2023-04-10T00:10:05.709Z,54.40
2023-04-10T00:11:05.893Z,50.70
2023-04-10T00:12:06.218Z,53.00
2023-04-10T00:13:06.401Z,50.70
2023-04-10T00:14:06.721Z,52.40
2023-04-10T00:15:06.969Z,56.20
2023-04-10T00:16:07.184Z,50.70
2023-04-10T00:17:07.370Z,55.30
2023-04-10T00:18:07.729Z,48.80
2023-04-10T00:19:07.939Z,53.30
2023-04-10T00:20:08.284Z,52.60
2023-04-10T00:21:08.467Z,54.60
2023-04-10T00:22:08.792Z,55.40
2023-04-10T00:23:09.106Z,51.90
2023-04-10T00:24:09.309Z,54.10
2023-04-10T00:25:09.571Z,51.20
2023-04-10T00:26:09.751Z,61.20
2023-04-10T00:27:09.957Z,51.30
2023-04-10T00:28:10.283Z,50.30
2023-04-10T00:29:10.487Z,53.30
2023-04-10T00:30:10.828Z,53.50
2023-04-10T00:31:11.006Z,51.80
2023-04-10T00:32:11.372Z,49.80
2023-04-10T00:33:11.533Z,52.30
2023-04-10T00:34:11.855Z,50.30
2023-04-10T00:35:12.101Z,51.10
2023-04-10T00:36:12.414Z,51.50
2023-04-10T00:37:12.601Z,52.50
2023-04-10T00:38:12.918Z,50.40
2023-04-10T00:39:13.170Z,50.60
2023-04-10T00:40:13.510Z,51.90
2023-04-10T00:41:13.724Z,53.50
2023-04-10T00:42:13.930Z,52.00
2023-04-10T00:43:14.131Z,54.50
2023-04-10T00:44:14.455Z,48.60
2023-04-10T00:45:14.689Z,47.00
2023-04-10T00:46:15.076Z,51.20
2023-04-10T00:47:15.261Z,51.50
2023-04-10T00:48:15.602Z,50.70
2023-04-10T00:49:15.801Z,47.40
2023-04-10T00:50:16.120Z,51.10
2023-04-10T00:51:16.298Z,55.00
2023-04-10T00:52:16.613Z,51.10
2023-04-10T00:53:16.815Z,52.60
2023-04-10T00:54:17.185Z,52.70
2023-04-10T00:55:17.379Z,47.90
2023-04-10T00:56:17.699Z,53.20
2023-04-10T00:57:17.906Z,46.90
2023-04-10T00:58:18.127Z,51.60
2023-04-10T00:59:18.328Z,47.60
2023-04-10T01:00:18.696Z,53.50
2023-04-10T01:01:19.052Z,53.10
2023-04-10T01:02:19.271Z,50.70
2023-04-10T01:03:19.767Z,61.60
2023-04-10T01:04:19.874Z,51.60
2023-04-10T01:05:19.983Z,51.20
2023-04-10T01:06:20.305Z,55.10
2023-04-10T01:07:20.511Z,51.70
2023-04-10T01:08:20.836Z,52.50
2023-04-10T01:09:21.037Z,57.40
2023-04-10T01:10:21.365Z,55.20
2023-04-10T01:11:21.572Z,51.60
2023-04-10T01:12:21.913Z,55.40
2023-04-10T01:13:22.113Z,52.60
2023-04-10T01:14:22.436Z,66.30
2023-04-10T01:15:22.628Z,55.00
2023-04-10T01:16:23.018Z,56.40
2023-04-10T01:17:23.258Z,55.30
2023-04-10T01:18:23.535Z,54.00
2023-04-10T01:19:23.740Z,51.50
2023-04-10T01:20:24.061Z,50.60
2023-04-10T01:21:24.363Z,54.80
2023-04-10T01:22:24.695Z,58.00
2023-04-10T01:23:24.889Z,57.80
2023-04-10T01:24:25.232Z,51.10
2023-04-10T01:25:25.439Z,54.50
2023-04-10T01:26:25.765Z,56.90
2023-04-10T01:27:25.993Z,57.20
2023-04-10T01:28:26.226Z,57.80
2023-04-10T01:29:26.420Z,60.70
2023-04-10T01:30:26.756Z,59.50
2023-04-10T01:31:27.009Z,61.40
2023-04-10T01:32:27.215Z,57.00
2023-04-10T01:33:27.422Z,58.50
2023-04-10T01:34:27.802Z,61.70
2023-04-10T01:35:27.975Z,54.00
2023-04-10T01:36:28.179Z,55.10
2023-04-10T01:37:28.374Z,58.00
2023-04-10T01:38:28.697Z,57.50
2023-04-10T01:39:28.928Z,60.10
2023-04-10T01:40:29.150Z,62.40
2023-04-10T01:41:29.381Z,58.00
2023-04-10T01:42:29.630Z,58.10
2023-04-10T01:43:29.864Z,57.30
2023-04-10T01:44:30.115Z,56.60
2023-04-10T01:45:30.336Z,54.60
2023-04-10T01:46:30.621Z,59.40
2023-04-10T01:47:30.917Z,61.50
2023-04-10T01:48:31.141Z,57.60
2023-04-10T01:49:31.379Z,56.40
2023-04-10T01:50:31.615Z,55.10
2023-04-10T01:51:31.824Z,58.10
2023-04-10T01:52:32.161Z,57.30
2023-04-10T01:53:32.378Z,62.10
2023-04-10T01:54:32.713Z,62.10
2023-04-10T01:55:32.904Z,58.70
2023-04-10T01:56:33.237Z,57.40
2023-04-10T01:57:33.450Z,55.70
2023-04-10T01:58:33.675Z,55.00
2023-04-10T01:59:33.905Z,56.30
2023-04-10T02:00:34.108Z,61.50
2023-04-10T02:01:34.382Z,61.30
2023-04-10T02:02:34.841Z,60.20
2023-04-10T02:03:35.012Z,57.20
2023-04-10T02:04:35.258Z,66.00
2023-04-10T02:05:35.472Z,61.20
2023-04-10T02:06:35.684Z,63.30
2023-04-10T02:07:36.007Z,61.20
2023-04-10T02:08:36.336Z,60.30
2023-04-10T02:09:36.538Z,66.30
2023-04-10T02:10:36.860Z,61.30
2023-04-10T02:11:37.075Z,65.80
2023-04-10T02:12:37.282Z,63.80
2023-04-10T02:13:37.596Z,66.40
2023-04-10T02:14:37.914Z,61.50
2023-04-10T02:15:38.199Z,65.10
2023-04-10T02:16:38.473Z,62.20
2023-04-10T02:17:38.740Z,58.50
2023-04-10T02:18:38.902Z,67.90
2023-04-10T02:19:39.215Z,64.70
2023-04-10T02:20:39.572Z,64.50
2023-04-10T02:21:39.753Z,66.30
2023-04-10T02:22:39.960Z,66.20
2023-04-10T02:23:40.291Z,63.10
2023-04-10T02:24:40.604Z,62.40
2023-04-10T02:25:40.818Z,62.00
2023-04-10T02:26:41.148Z,69.30
2023-04-10T02:27:41.361Z,65.70
2023-04-10T02:28:41.694Z,64.30
2023-04-10T02:29:41.910Z,64.70
2023-04-10T02:30:42.226Z,65.40
2023-04-10T02:31:42.483Z,62.50
2023-04-10T02:32:42.687Z,67.70
2023-04-10T02:33:42.880Z,67.80
2023-04-10T02:34:43.101Z,65.10
2023-04-10T02:35:43.359Z,66.10
2023-04-10T02:36:43.576Z,67.60
2023-04-10T02:37:43.792Z,65.00
2023-04-10T02:38:44.025Z,65.50
2023-04-10T02:39:44.243Z,64.70
2023-04-10T02:40:44.475Z,68.60
2023-04-10T02:41:44.715Z,63.10
2023-04-10T02:42:44.895Z,64.70
2023-04-10T02:43:45.217Z,65.20
2023-04-10T02:44:45.539Z,67.10
2023-04-10T02:45:45.859Z,65.60
2023-04-10T02:46:46.238Z,63.00
2023-04-10T02:47:46.445Z,62.80
2023-04-10T02:48:46.635Z,62.40
2023-04-10T02:49:46.835Z,61.70
2023-04-10T02:50:47.171Z,64.20
2023-04-10T02:51:47.422Z,63.90
2023-04-10T02:52:47.717Z,66.40
2023-04-10T02:53:47.936Z,61.50
2023-04-10T02:54:48.267Z,63.20
2023-04-10T02:55:48.487Z,62.90
2023-04-10T02:56:48.696Z,65.20
2023-04-10T02:57:49.025Z,64.90
2023-04-10T02:58:49.245Z,66.40
2023-04-10T02:59:49.469Z,63.10
2023-04-10T03:00:49.706Z,65.10
2023-04-10T03:01:49.977Z,67.30
2023-04-10T03:02:50.483Z,65.30
2023-04-10T03:03:50.579Z,71.70
2023-04-10T03:04:50.775Z,66.60
2023-04-10T03:05:51.008Z,65.60
2023-04-10T03:06:51.299Z,71.60
2023-04-10T03:07:51.502Z,69.00
2023-04-10T03:08:51.740Z,68.90
2023-04-10T03:09:51.958Z,72.40
2023-04-10T03:10:52.282Z,68.00
2023-04-10T03:11:52.531Z,65.80
2023-04-10T03:12:52.760Z,65.80
2023-04-10T03:13:53.161Z,68.30
2023-04-10T03:14:53.192Z,65.20
2023-04-10T03:15:53.463Z,67.80
2023-04-10T03:16:53.672Z,66.00
2023-04-10T03:17:53.929Z,62.80
2023-04-10T03:18:54.210Z,66.60
2023-04-10T03:19:54.421Z,64.70
2023-04-10T03:20:54.767Z,70.20
2023-04-10T03:21:54.975Z,67.20
2023-04-10T03:22:55.325Z,73.20
2023-04-10T03:23:55.754Z,70.30
2023-04-10T03:24:55.815Z,67.40
2023-04-10T03:25:56.050Z,68.90
2023-04-10T03:26:56.246Z,76.90
2023-04-10T03:27:56.469Z,70.70
2023-04-10T03:28:56.790Z,71.90
2023-04-10T03:29:57.005Z,71.30
2023-04-10T03:30:57.249Z,68.90
2023-04-10T03:31:57.662Z,62.40
2023-04-10T03:32:57.770Z,70.00
2023-04-10T03:33:58.437Z,67.20
2023-04-10T03:34:58.253Z,66.70
2023-04-10T03:35:58.519Z,65.40
2023-04-10T03:36:58.745Z,67.50
2023-04-10T03:37:58.981Z,68.30
2023-04-10T03:38:59.174Z,68.10
2023-04-10T03:39:59.500Z,73.40
2023-04-10T03:40:59.844Z,76.50
2023-04-10T03:42:00.060Z,68.00
2023-04-10T03:43:00.386Z,76.60
2023-04-10T03:44:00.598Z,71.30
2023-04-10T03:45:00.918Z,74.10
2023-04-10T03:46:01.159Z,70.20
2023-04-10T03:47:01.409Z,69.50
2023-04-10T03:48:01.677Z,67.90
2023-04-10T03:49:01.945Z,64.70
2023-04-10T03:50:02.244Z,69.80
2023-04-10T03:51:02.530Z,66.30
2023-04-10T03:52:02.724Z,66.80
2023-04-10T03:53:02.997Z,65.90
2023-04-10T03:54:03.307Z,77.70
2023-04-10T03:55:03.662Z,70.90
2023-04-10T03:56:03.908Z,73.20
2023-04-10T03:57:04.136Z,65.70
2023-04-10T03:58:04.359Z,67.70
2023-04-10T03:59:04.585Z,71.30
2023-04-10T04:00:04.814Z,67.60
2023-04-10T04:01:05.065Z,66.80
2023-04-10T04:02:05.394Z,68.20
2023-04-10T04:03:05.677Z,63.20
2023-04-10T04:04:05.881Z,69.10
2023-04-10T04:05:06.226Z,71.10
2023-04-10T04:06:06.381Z,64.50
2023-04-10T04:07:06.604Z,69.00
2023-04-10T04:08:06.860Z,66.50
2023-04-10T04:09:07.055Z,65.70
2023-04-10T04:10:07.275Z,72.70
2023-04-10T04:11:07.618Z,70.40
2023-04-10T04:12:07.833Z,71.70
2023-04-10T04:13:08.063Z,66.20
2023-04-10T04:14:08.265Z,68.40
2023-04-10T04:15:08.597Z,66.60
2023-04-10T04:16:08.889Z,69.40
2023-04-10T04:17:09.090Z,67.00
2023-04-10T04:18:09.284Z,73.30
2023-04-10T04:19:09.621Z,71.90
2023-04-10T04:20:09.832Z,71.40
2023-04-10T04:21:10.175Z,74.90
2023-04-10T04:22:10.377Z,73.30
2023-04-10T04:23:10.732Z,72.20
2023-04-10T04:24:10.932Z,69.80
2023-04-10T04:25:11.168Z,72.80
2023-04-10T04:26:11.506Z,69.00
2023-04-10T04:27:11.722Z,76.60
2023-04-10T04:28:12.065Z,74.10
2023-04-10T04:29:12.291Z,72.40
2023-04-10T04:30:12.517Z,70.10
2023-04-10T04:31:12.728Z,70.40
2023-04-10T04:32:13.060Z,75.00
2023-04-10T04:33:13.243Z,72.70
2023-04-10T04:34:13.432Z,73.10
2023-04-10T04:35:13.644Z,73.10
2023-04-10T04:36:13.979Z,68.40
2023-04-10T04:37:14.196Z,74.30
2023-04-10T04:38:14.538Z,74.80
2023-04-10T04:39:21.779Z,74.20
2023-04-10T04:40:17.817Z,73.20
2023-04-10T04:41:20.391Z,71.20
2023-04-10T04:42:15.664Z,72.60
2023-04-10T04:43:16.013Z,68.20
2023-04-10T04:44:16.326Z,70.80
2023-04-10T04:45:16.538Z,69.80
2023-04-10T04:46:16.798Z,68.20
2023-04-10T04:47:17.075Z,69.90
2023-04-10T04:48:17.234Z,68.80
2023-04-10T04:49:17.454Z,71.30
2023-04-10T04:50:17.777Z,71.40
2023-04-10T04:51:17.986Z,69.60
2023-04-10T04:52:18.327Z,72.00
2023-04-10T04:53:18.553Z,68.40
2023-04-10T04:54:18.783Z,69.00
2023-04-10T04:55:19.012Z,70.10
2023-04-10T04:56:19.221Z,72.10
2023-04-10T04:57:19.431Z,66.90
2023-04-10T04:58:19.772Z,73.90
2023-04-10T04:59:19.979Z,69.70
2023-04-10T05:00:20.328Z,71.10
2023-04-10T05:01:20.599Z,71.30
2023-04-10T05:02:20.889Z,72.80
2023-04-10T05:03:21.166Z,68.90
2023-04-10T05:04:21.412Z,74.30
2023-04-10T05:05:21.534Z,67.30
2023-04-10T05:06:21.789Z,71.60
2023-04-10T05:07:21.969Z,71.00
2023-04-10T05:08:22.305Z,74.30
2023-04-10T05:09:22.509Z,67.20
2023-04-10T05:10:22.840Z,68.30
2023-04-10T05:11:23.088Z,71.30
2023-04-10T05:12:23.320Z,67.60
2023-04-10T05:13:23.520Z,70.40
2023-04-10T05:14:23.831Z,70.70
2023-04-10T05:15:24.029Z,68.90
2023-04-10T05:16:24.359Z,70.80
2023-04-10T05:17:24.589Z,73.90
2023-04-10T05:18:24.812Z,78.30
2023-04-10T05:19:24.997Z,72.50
2023-04-10T05:20:25.321Z,75.50
2023-04-10T05:21:25.515Z,72.30
2023-04-10T05:22:25.836Z,71.20
2023-04-10T05:23:26.125Z,68.30
2023-04-10T05:24:26.480Z,73.90
2023-04-10T05:25:26.658Z,69.00
2023-04-10T05:26:26.970Z,67.60
2023-04-10T05:27:27.164Z,68.70
2023-04-10T05:28:27.468Z,67.60
2023-04-10T05:29:27.670Z,65.70
2023-04-10T05:30:27.987Z,66.60
2023-04-10T05:31:28.246Z,69.60
2023-04-10T05:32:28.472Z,70.10
2023-04-10T05:33:28.638Z,64.30
2023-04-10T05:34:28.946Z,65.40
2023-04-10T05:35:29.177Z,66.50
2023-04-10T05:36:29.393Z,64.00
2023-04-10T05:37:29.594Z,65.20
2023-04-10T05:38:29.818Z,65.00
2023-04-10T05:39:30.008Z,63.80
2023-04-10T05:40:30.342Z,65.10
2023-04-10T05:41:30.553Z,61.30
2023-04-10T05:42:30.761Z,63.30
2023-04-10T05:43:30.934Z,62.60
2023-04-10T05:44:31.263Z,63.00
2023-04-10T05:45:31.461Z,64.20
2023-04-10T05:46:31.838Z,66.70
2023-04-10T05:47:32.055Z,58.80
2023-04-10T05:48:32.217Z,62.00
2023-04-10T05:49:32.420Z,59.90
2023-04-10T05:50:32.622Z,58.20
2023-04-10T05:51:32.804Z,60.20
2023-04-10T05:52:33.107Z,58.60
2023-04-10T05:53:33.320Z,62.00
2023-04-10T05:54:33.522Z,58.50
2023-04-10T05:55:33.706Z,53.00
2023-04-10T05:56:34.034Z,55.10
2023-04-10T05:57:34.223Z,56.40
2023-04-10T05:58:34.383Z,56.10
2023-04-10T05:59:34.575Z,51.60
2023-04-10T06:00:34.768Z,53.90
2023-04-10T06:01:34.981Z,54.80
2023-04-10T06:02:35.367Z,57.30
2023-04-10T06:03:35.552Z,56.10
2023-04-10T06:04:35.864Z,53.80
2023-04-10T06:05:35.961Z,51.10
2023-04-10T06:06:36.165Z,55.20
2023-04-10T06:07:36.365Z,52.50
2023-04-10T06:08:36.580Z,53.00
2023-04-10T06:09:36.750Z,57.10
2023-04-10T06:10:37.037Z,50.80
2023-04-10T06:11:37.207Z,50.70
2023-04-10T06:12:37.521Z,51.90
2023-04-10T06:13:37.701Z,53.00
2023-04-10T06:14:37.985Z,53.50
2023-04-10T06:15:38.410Z,49.60
2023-04-10T06:16:38.408Z,48.60
2023-04-10T06:17:38.534Z,47.10
2023-04-10T06:18:38.812Z,48.90
2023-04-10T06:19:38.977Z,50.70
2023-04-10T06:20:39.250Z,53.80
2023-04-10T06:21:39.539Z,47.30
2023-04-10T06:22:39.792Z,47.80
2023-04-10T06:23:39.954Z,48.70
2023-04-10T06:24:40.224Z,50.40
2023-04-10T06:25:40.371Z,47.30
2023-04-10T06:26:40.562Z,48.70
2023-04-10T06:27:40.725Z,47.60
2023-04-10T06:28:40.888Z,48.20
2023-04-10T06:29:41.061Z,43.80
2023-04-10T06:30:41.368Z,49.50
2023-04-10T06:31:42.404Z,48.30
2023-04-10T06:32:41.687Z,45.30
2023-04-10T06:33:41.834Z,48.80
2023-04-10T06:34:42.016Z,48.70
2023-04-10T06:35:42.196Z,46.50
2023-04-10T06:36:42.369Z,51.80
2023-04-10T06:37:42.532Z,46.90
2023-04-10T06:38:42.747Z,43.60
2023-04-10T06:39:42.898Z,45.70
2023-04-10T06:40:43.058Z,47.60
2023-04-10T06:41:43.230Z,48.20
2023-04-10T06:42:43.387Z,45.60
2023-04-10T06:43:43.554Z,51.50
2023-04-10T06:44:43.806Z,51.50
2023-04-10T06:45:43.954Z,52.50
2023-04-10T06:46:44.157Z,50.50
2023-04-10T06:47:44.340Z,50.10
2023-04-10T06:48:44.448Z,50.30
2023-04-10T06:49:44.594Z,47.00
2023-04-10T06:50:44.746Z,49.50
2023-04-10T06:51:44.906Z,52.20
2023-04-10T06:52:45.073Z,51.70
2023-04-10T06:53:45.219Z,52.10
2023-04-10T06:54:45.499Z,55.00
2023-04-10T06:55:45.659Z,53.50
2023-04-10T06:56:45.916Z,49.20
2023-04-10T06:57:46.062Z,47.70
2023-04-10T06:58:46.219Z,49.30
2023-04-10T06:59:46.383Z,47.20
2023-04-10T07:00:46.574Z,49.00
2023-04-10T07:01:46.744Z,55.30
2023-04-10T07:02:46.881Z,56.40
2023-04-10T07:03:47.072Z,56.80
2023-04-10T07:04:47.198Z,62.90
2023-04-10T07:05:47.374Z,59.80
2023-04-10T07:06:47.623Z,59.90
2023-04-10T07:07:47.763Z,61.00
2023-04-10T07:08:48.030Z,59.90
2023-04-10T07:09:48.174Z,58.60
2023-04-10T07:10:48.461Z,56.10
2023-04-10T07:11:49.584Z,62.20
2023-04-10T07:12:48.851Z,56.40
2023-04-10T07:13:49.015Z,57.50
2023-04-10T07:14:49.163Z,55.70
2023-04-10T07:15:49.317Z,60.90
2023-04-10T07:16:49.698Z,55.00
2023-04-10T07:17:49.877Z,59.70
2023-04-10T07:18:50.004Z,64.70
2023-04-10T07:19:50.164Z,60.10
2023-04-10T07:20:50.326Z,55.20
2023-04-10T07:21:50.467Z,62.50
2023-04-10T07:22:50.630Z,57.60
2023-04-10T07:23:50.775Z,59.20
2023-04-10T07:24:51.032Z,60.20
2023-04-10T07:25:51.175Z,57.00
2023-04-10T07:26:51.447Z,59.80
2023-04-10T07:27:51.571Z,59.10
2023-04-10T07:28:52.029Z,57.60
2023-04-10T07:29:51.990Z,59.40
2023-04-10T07:30:52.129Z,58.70
2023-04-10T07:31:52.347Z,53.70
2023-04-10T07:32:52.658Z,58.30
2023-04-10T07:33:52.680Z,55.30
2023-04-10T07:34:52.848Z,57.20
2023-04-10T07:35:53.074Z,59.50
2023-04-10T07:36:53.160Z,55.40
2023-04-10T07:37:53.284Z,53.00
2023-04-10T07:38:53.776Z,57.10
2023-04-10T07:39:53.605Z,54.40
2023-04-10T07:40:53.857Z,50.70
2023-04-10T07:41:53.979Z,54.50
2023-04-10T07:42:54.122Z,50.30
2023-04-10T07:43:54.199Z,51.80
2023-04-10T07:44:54.433Z,53.00
2023-04-10T07:45:54.627Z,51.50
2023-04-10T07:46:54.740Z,52.10
2023-04-10T07:47:54.914Z,55.20
2023-04-10T07:48:55.442Z,53.20
2023-04-10T07:49:55.210Z,49.90
2023-04-10T07:50:56.291Z,46.40
2023-04-10T07:51:55.545Z,48.30
2023-04-10T07:52:55.655Z,47.10
2023-04-10T07:53:55.771Z,52.00
2023-04-10T07:54:55.914Z,47.20
2023-04-10T07:55:56.026Z,50.80
2023-04-10T07:56:56.142Z,50.10
2023-04-10T07:57:56.254Z,48.60
2023-04-10T07:58:56.523Z,49.80
2023-04-10T07:59:56.521Z,49.60
2023-04-10T08:00:56.723Z,49.50
2023-04-10T08:01:56.849Z,45.50
2023-04-10T08:02:57.190Z,48.90
2023-04-10T08:03:57.220Z,47.60
2023-04-10T08:04:57.372Z,48.60
2023-04-10T08:05:57.451Z,52.10
2023-04-10T08:06:57.562Z,45.70
2023-04-10T08:07:57.647Z,48.50
2023-04-10T08:08:57.754Z,44.60
2023-04-10T08:09:57.837Z,45.00
2023-04-10T08:10:58.038Z,45.10
2023-04-10T08:11:58.146Z,46.00
2023-04-10T08:12:58.290Z,46.80
2023-04-10T08:13:58.354Z,46.50
2023-04-10T08:14:58.438Z,44.40
2023-04-10T08:15:58.531Z,45.10
2023-04-10T08:16:58.671Z,45.90
2023-04-10T08:17:58.790Z,44.70
2023-04-10T08:18:58.844Z,43.70
2023-04-10T08:19:58.929Z,45.20
2023-04-10T08:20:59.008Z,45.90
2023-04-10T08:21:59.082Z,44.40
2023-04-10T08:23:09.189Z,44.20
2023-04-10T08:24:00.284Z,51.90
2023-04-10T08:24:59.449Z,47.60
2023-04-10T08:25:59.613Z,44.60
2023-04-10T08:26:59.695Z,46.10
2023-04-10T08:27:59.773Z,50.90
2023-04-10T08:28:59.893Z,48.80
2023-04-10T08:29:59.959Z,47.20
2023-04-10T08:31:00.063Z,46.60
2023-04-10T08:32:00.136Z,48.40
2023-04-10T08:33:00.279Z,47.70
2023-04-10T08:34:00.704Z,49.70
2023-04-10T08:35:00.570Z,51.00
2023-04-10T08:36:00.654Z,46.90
2023-04-10T08:37:00.722Z,46.30
2023-04-10T08:38:12.614Z,46.70
2023-04-10T08:39:01.875Z,47.70
2023-04-10T08:40:00.940Z,45.00
2023-04-10T08:41:00.988Z,45.50
2023-04-10T08:42:01.209Z,46.10
2023-04-10T08:43:01.297Z,43.30
2023-04-10T08:44:01.370Z,45.70
2023-04-10T08:45:01.461Z,44.40
2023-04-10T08:46:01.577Z,46.00
2023-04-10T08:47:01.688Z,42.10
2023-04-10T08:48:01.834Z,42.30
2023-04-10T08:49:01.907Z,41.00
2023-04-10T08:50:01.964Z,40.90
2023-04-10T08:51:02.213Z,40.90
2023-04-10T08:52:02.210Z,39.00
2023-04-10T08:53:02.279Z,41.60
2023-04-10T08:54:02.374Z,38.10
2023-04-10T08:55:02.476Z,36.40
2023-04-10T08:56:02.507Z,48.40
2023-04-10T08:57:02.631Z,38.30
2023-04-10T08:58:02.662Z,39.10
2023-04-10T08:59:02.742Z,42.90
2023-04-10T09:00:16.414Z,38.00
2023-04-10T09:01:03.958Z,39.60
2023-04-10T09:02:03.179Z,46.40
2023-04-10T09:03:03.149Z,40.00
2023-04-10T09:04:03.420Z,38.70
2023-04-10T09:05:03.207Z,40.50
2023-04-10T09:06:03.258Z,37.40
2023-04-10T09:07:03.327Z,37.00
2023-04-10T09:08:03.366Z,37.00
2023-04-10T09:09:03.440Z,37.80
2023-04-10T09:10:03.498Z,36.20
2023-04-10T09:11:03.533Z,34.50
2023-04-10T09:12:03.672Z,35.50
2023-04-10T09:13:03.736Z,36.60
2023-04-10T09:14:03.782Z,36.60
2023-04-10T09:15:03.829Z,35.70
2023-04-10T09:16:03.946Z,35.60
2023-04-10T09:17:04.007Z,33.70
2023-04-10T09:18:04.120Z,36.50
2023-04-10T09:19:06.379Z,34.00
2023-04-10T09:20:04.243Z,32.80
2023-04-10T09:21:04.267Z,33.10
2023-04-10T09:22:04.337Z,32.60
2023-04-10T09:23:04.386Z,32.40
2023-04-10T09:24:04.430Z,34.50
2023-04-10T09:25:04.464Z,32.10
2023-04-10T09:26:04.521Z,32.10
2023-04-10T09:27:04.564Z,32.10
2023-04-10T09:28:04.613Z,30.50
2023-04-10T09:29:04.661Z,30.00
2023-04-10T09:30:04.752Z,26.60
2023-04-10T09:31:04.793Z,27.50
2023-04-10T09:32:04.801Z,26.80
2023-04-10T09:33:04.959Z,29.50
2023-04-10T09:34:04.966Z,30.60
2023-04-10T09:35:04.995Z,29.50
2023-04-10T09:36:05.039Z,28.20
2023-04-10T09:37:05.075Z,29.20
2023-04-10T09:38:05.116Z,28.10
2023-04-10T09:39:05.149Z,26.10
2023-04-10T09:40:05.253Z,28.80
2023-04-10T09:41:05.246Z,26.20
2023-04-10T09:42:05.288Z,27.50
2023-04-10T09:43:05.351Z,28.30
2023-04-10T09:44:05.377Z,29.80
2023-04-10T09:45:05.383Z,26.40
2023-04-10T09:46:05.524Z,26.20
2023-04-10T09:47:05.553Z,33.70
2023-04-10T09:48:05.624Z,31.20
2023-04-10T09:49:05.625Z,28.70
2023-04-10T09:50:05.673Z,26.60
2023-04-10T09:51:05.704Z,28.90
2023-04-10T09:52:05.759Z,24.90
2023-04-10T09:53:05.815Z,27.00
2023-04-10T09:54:05.846Z,27.20
2023-04-10T09:55:05.897Z,28.90
2023-04-10T09:56:05.936Z,27.40
2023-04-10T09:57:05.987Z,28.30
2023-04-10T09:58:06.054Z,30.20
2023-04-10T09:59:06.070Z,28.10
2023-04-10T10:00:06.123Z,27.40
2023-04-10T10:01:06.159Z,27.80
2023-04-10T10:02:06.246Z,25.10
2023-04-10T10:03:06.489Z,23.90
2023-04-10T10:04:06.391Z,27.20
2023-04-10T10:05:06.459Z,25.30
2023-04-10T10:06:06.481Z,24.50
2023-04-10T10:07:06.524Z,22.60
2023-04-10T10:08:06.574Z,22.70
2023-04-10T10:09:06.623Z,25.90
2023-04-10T10:10:06.652Z,21.00
2023-04-10T10:11:06.684Z,23.70
2023-04-10T10:12:06.742Z,22.40
2023-04-10T10:13:06.803Z,22.00
2023-04-10T10:14:06.803Z,24.20
2023-04-10T10:15:06.822Z,21.50
2023-04-10T10:16:06.924Z,21.00
2023-04-10T10:17:06.936Z,22.00
2023-04-10T10:18:07.105Z,22.40
2023-04-10T10:19:06.985Z,20.30
2023-04-10T10:20:07.039Z,21.40
2023-04-10T10:21:07.055Z,23.20
2023-04-10T10:22:07.110Z,18.10
2023-04-10T10:23:07.131Z,20.40
2023-04-10T10:24:07.154Z,19.60
2023-04-10T10:25:07.183Z,20.60
2023-04-10T10:26:07.213Z,20.40
2023-04-10T10:27:07.275Z,20.00
2023-04-10T10:28:07.300Z,20.20
2023-04-10T10:29:07.329Z,21.60
2023-04-10T10:30:20.132Z,21.40
2023-04-10T10:31:08.431Z,19.90
2023-04-10T10:32:07.451Z,22.00
2023-04-10T10:33:07.455Z,18.30
2023-04-10T10:34:07.536Z,19.50
2023-04-10T10:35:07.537Z,19.00
2023-04-10T10:36:07.542Z,20.90
2023-04-10T10:37:07.567Z,20.80
2023-04-10T10:38:07.623Z,20.50
2023-04-10T10:39:07.698Z,21.70
2023-04-10T10:40:14.715Z,19.40
2023-04-10T10:41:07.751Z,19.20
2023-04-10T10:42:07.773Z,20.00
2023-04-10T10:43:07.806Z,21.00
2023-04-10T10:44:07.831Z,19.00
2023-04-10T10:45:07.836Z,22.20
2023-04-10T10:46:07.923Z,20.30
2023-04-10T10:47:07.920Z,18.40
2023-04-10T10:48:08.049Z,19.70
2023-04-10T10:49:07.963Z,17.10
2023-04-10T10:50:08.011Z,16.70
2023-04-10T10:51:08.036Z,19.10
2023-04-10T10:52:08.070Z,17.60
2023-04-10T10:53:08.090Z,25.90
2023-04-10T10:54:08.117Z,16.80
2023-04-10T10:55:08.143Z,17.30
2023-04-10T10:56:08.179Z,17.50
2023-04-10T10:57:08.200Z,18.80
2023-04-10T10:58:08.232Z,19.70
2023-04-10T10:59:08.274Z,19.60
2023-04-10T11:00:08.295Z,17.50
2023-04-10T11:01:10.306Z,18.50
2023-04-10T11:02:08.633Z,18.30
2023-04-10T11:03:08.637Z,20.90
2023-04-10T11:04:08.551Z,17.00
2023-04-10T11:05:08.535Z,15.90
2023-04-10T11:06:08.589Z,19.30
2023-04-10T11:07:08.613Z,22.90
2023-04-10T11:08:08.676Z,20.70
2023-04-10T11:09:08.667Z,16.50
2023-04-10T11:10:08.696Z,18.50
2023-04-10T11:11:08.751Z,18.20
2023-04-10T11:12:08.789Z,20.70
2023-04-10T11:13:08.817Z,17.60
2023-04-10T11:14:08.850Z,15.10
2023-04-10T11:15:09.375Z,17.40
2023-04-10T11:16:08.991Z,15.80
2023-04-10T11:17:09.080Z,15.10
2023-04-10T11:18:09.068Z,16.30
2023-04-10T11:19:14.754Z,17.90
2023-04-10T11:20:10.124Z,15.30
2023-04-10T11:21:09.148Z,16.90
2023-04-10T11:22:09.322Z,15.80
2023-04-10T11:23:09.249Z,16.70
2023-04-10T11:24:09.241Z,16.60
2023-04-10T11:25:09.264Z,15.80
2023-04-10T11:26:09.316Z,17.60
2023-04-10T11:27:09.385Z,16.60
2023-04-10T11:28:09.410Z,18.30
2023-04-10T11:29:09.470Z,20.30
2023-04-10T11:30:09.527Z,16.80
2023-04-10T11:31:09.554Z,18.20
2023-04-10T11:32:09.713Z,18.20
2023-04-10T11:33:09.661Z,19.20
2023-04-10T11:34:09.666Z,18.60
2023-04-10T11:35:09.700Z,16.40
2023-04-10T11:36:09.733Z,17.70
2023-04-10T11:37:09.773Z,16.50
2023-04-10T11:38:09.831Z,16.90
2023-04-10T11:39:09.894Z,15.70
2023-04-10T11:40:09.925Z,17.80
2023-04-10T11:41:09.960Z,15.70
2023-04-10T11:42:10.000Z,15.20
2023-04-10T11:43:10.029Z,16.20
2023-04-10T11:44:10.258Z,14.80
2023-04-10T11:45:10.162Z,19.00
2023-04-10T11:46:10.299Z,19.70
2023-04-10T11:47:10.264Z,19.10
2023-04-10T11:48:10.320Z,17.60
2023-04-10T11:49:10.347Z,17.00
2023-04-10T11:50:10.475Z,19.60
2023-04-10T11:51:10.526Z,17.50
2023-04-10T11:52:10.589Z,18.50
2023-04-10T11:53:10.610Z,17.80
2023-04-10T11:54:10.642Z,20.00
2023-04-10T11:55:10.666Z,15.50
2023-04-10T11:56:10.693Z,16.20
2023-04-10T11:57:10.755Z,19.30
2023-04-10T11:58:10.789Z,16.30
2023-04-10T11:59:11.059Z,17.30
2023-04-10T12:00:10.890Z,17.60
2023-04-10T12:01:10.931Z,20.20
2023-04-10T12:02:11.115Z,17.50
2023-04-10T12:03:11.162Z,15.50
2023-04-10T12:04:11.248Z,19.40
2023-04-10T12:05:11.268Z,19.00
2023-04-10T12:06:11.329Z,20.90
2023-04-10T12:07:11.378Z,16.20
2023-04-10T12:08:11.424Z,19.90
2023-04-10T12:09:11.478Z,20.10
2023-04-10T12:10:11.502Z,17.80
2023-04-10T12:11:11.551Z,20.40
2023-04-10T12:12:11.605Z,15.90
2023-04-10T12:13:11.636Z,17.30
2023-04-10T12:14:11.677Z,19.00
2023-04-10T12:15:11.723Z,17.40
2023-04-10T12:16:11.876Z,19.10
2023-04-10T12:17:11.888Z,17.60
2023-04-10T12:18:11.893Z,13.90
2023-04-10T12:19:11.944Z,16.70
2023-04-10T12:20:11.998Z,15.50
2023-04-10T12:21:12.026Z,17.90
2023-04-10T12:22:12.126Z,14.90
2023-04-10T12:23:12.143Z,14.50
2023-04-10T12:24:12.202Z,13.40
2023-04-10T12:25:12.268Z,15.00
2023-04-10T12:26:12.334Z,18.30
2023-04-10T12:27:12.377Z,14.40
2023-04-10T12:28:12.424Z,15.60
2023-04-10T12:29:12.469Z,16.30
2023-04-10T12:30:12.541Z,16.70
2023-04-10T12:31:12.686Z,14.20
2023-04-10T12:32:12.730Z,15.50
2023-04-10T12:33:12.765Z,16.20
2023-04-10T12:34:12.806Z,15.60
2023-04-10T12:35:12.880Z,14.50
2023-04-10T12:36:12.916Z,14.30
2023-04-10T12:37:12.953Z,15.30
2023-04-10T12:38:13.007Z,13.60
2023-04-10T12:39:13.058Z,15.10
2023-04-10T12:40:13.118Z,15.20
2023-04-10T12:41:13.162Z,14.90
2023-04-10T12:42:13.234Z,17.80
2023-04-10T12:43:13.292Z,13.30
2023-04-10T12:44:13.324Z,14.00
2023-04-10T12:45:13.388Z,13.60
2023-04-10T12:46:13.474Z,14.50
2023-04-10T12:47:13.509Z,13.60
2023-04-10T12:48:13.567Z,13.70
2023-04-10T12:49:13.619Z,14.40
2023-04-10T12:50:13.701Z,14.50
2023-04-10T12:51:13.755Z,15.40
2023-04-10T12:52:13.807Z,13.50
2023-04-10T12:53:14.166Z,10.20
2023-04-10T12:54:13.999Z,11.20